sensor_id;sensor_type;location;lat;lon;timestamp;pressure;altitude;pressure_sealevel;temperature;humidity
34328;BME280;20588;48.840;10.064;2022-12-26T00:01:01;96446.44;;;10.93;nan
34328;BME280;20588;48.840;10.064;2022-12-26T00:03:30;96447.72;;;11.02;nan
34328;BME280;20588;48.840;10.064;2022-12-26T00:05:56;96444.28;;;11.08;nan
34328;BME280;20588;48.840;10.064;2022-12-26T00:08:22;96440.84;;;11.14;nan
34328;BME280;20588;48.840;10.064;2022-12-26T00:10:48;96441.22;;;11.18;nan
34328;BME280;20588;48.840;10.064;2022-12-26T00:13:14;96455.03;;;11.23;nan
34328;BME280;20588;48.840;10.064;2022-12-26T00:15:41;96452.59;;;11.28;nan
34328;BME280;20588;48.840;10.064;2022-12-26T00:18:07;96454.53;;;11.33;nan
34328;BME280;20588;48.840;10.064;2022-12-26T00:20:33;96465.16;;;11.36;nan
34328;BME280;20588;48.840;10.064;2022-12-26T00:22:59;96456.47;;;11.37;nan
34328;BME280;20588;48.840;10.064;2022-12-26T00:25:26;96455.59;;;11.43;nan
34328;BME280;20588;48.840;10.064;2022-12-26T00:27:52;96460.31;;;11.46;nan
34328;BME280;20588;48.840;10.064;2022-12-26T00:30:18;96467.59;;;11.49;nan
34328;BME280;20588;48.840;10.064;2022-12-26T00:32:44;96463.88;;;11.45;nan
34328;BME280;20588;48.840;10.064;2022-12-26T00:35:10;96457.00;;;11.39;nan
34328;BME280;20588;48.840;10.064;2022-12-26T00:37:36;96468.16;;;11.33;nan
34328;BME280;20588;48.840;10.064;2022-12-26T00:40:02;96476.44;;;11.24;nan
34328;BME280;20588;48.840;10.064;2022-12-26T00:42:29;96474.06;;;11.22;nan
34328;BME280;20588;48.840;10.064;2022-12-26T00:44:55;96468.59;;;11.12;nan
34328;BME280;20588;48.840;10.064;2022-12-26T00:47:21;96471.19;;;11.12;nan
34328;BME280;20588;48.840;10.064;2022-12-26T00:49:47;96474.59;;;11.06;nan
34328;BME280;20588;48.840;10.064;2022-12-26T00:52:13;96474.59;;;11.06;nan
34328;BME280;20588;48.840;10.064;2022-12-26T00:54:39;96471.91;;;11.01;nan
34328;BME280;20588;48.840;10.064;2022-12-26T00:57:05;96474.66;;;10.99;nan
34328;BME280;20588;48.840;10.064;2022-12-26T00:59:31;96477.13;;;10.94;nan
34328;BME280;20588;48.840;10.064;2022-12-26T01:01:57;96462.53;;;10.88;nan
34328;BME280;20588;48.840;10.064;2022-12-26T01:04:23;96472.59;;;10.90;nan
34328;BME280;20588;48.840;10.064;2022-12-26T01:06:49;96477.97;;;10.88;nan
34328;BME280;20588;48.840;10.064;2022-12-26T01:09:15;96480.38;;;10.83;nan
34328;BME280;20588;48.840;10.064;2022-12-26T01:11:41;96479.78;;;10.81;nan
34328;BME280;20588;48.840;10.064;2022-12-26T01:14:13;96477.31;;;10.75;nan
34328;BME280;20588;48.840;10.064;2022-12-26T01:16:41;96473.72;;;10.76;nan
34328;BME280;20588;48.840;10.064;2022-12-26T01:19:07;96458.13;;;10.71;nan
34328;BME280;20588;48.840;10.064;2022-12-26T01:21:34;96469.63;;;10.68;nan
34328;BME280;20588;48.840;10.064;2022-12-26T01:24:00;96462.06;;;10.73;nan
34328;BME280;20588;48.840;10.064;2022-12-26T01:26:26;96462.50;;;10.70;nan
34328;BME280;20588;48.840;10.064;2022-12-26T01:28:52;96469.41;;;10.70;nan
34328;BME280;20588;48.840;10.064;2022-12-26T01:31:20;96470.69;;;10.61;nan
34328;BME280;20588;48.840;10.064;2022-12-26T01:33:47;96481.22;;;10.53;nan
34328;BME280;20588;48.840;10.064;2022-12-26T01:36:14;96474.34;;;10.47;nan
34328;BME280;20588;48.840;10.064;2022-12-26T01:38:40;96459.13;;;10.45;nan
34328;BME280;20588;48.840;10.064;2022-12-26T01:41:06;96461.13;;;10.43;nan
34328;BME280;20588;48.840;10.064;2022-12-26T01:46:14;96470.22;;;10.46;nan
34328;BME280;20588;48.840;10.064;2022-12-26T01:48:41;96470.59;;;10.49;nan
34328;BME280;20588;48.840;10.064;2022-12-26T01:51:07;96486.03;;;10.49;nan
34328;BME280;20588;48.840;10.064;2022-12-26T01:53:44;96484.50;;;10.42;nan
34328;BME280;20588;48.840;10.064;2022-12-26T01:56:16;96468.09;;;10.36;nan
34328;BME280;20588;48.840;10.064;2022-12-26T01:58:59;96472.28;;;10.37;nan
34328;BME280;20588;48.840;10.064;2022-12-26T02:01:29;96468.78;;;10.50;nan
34328;BME280;20588;48.840;10.064;2022-12-26T02:03:57;96468.09;;;10.36;nan
34328;BME280;20588;48.840;10.064;2022-12-26T02:06:43;96473.53;;;10.28;nan
34328;BME280;20588;48.840;10.064;2022-12-26T02:09:10;96465.44;;;10.25;nan
34328;BME280;20588;48.840;10.064;2022-12-26T02:12:00;96468.59;;;10.27;nan
34328;BME280;20588;48.840;10.064;2022-12-26T02:14:27;96481.78;;;10.30;nan
34328;BME280;20588;48.840;10.064;2022-12-26T02:16:55;96477.44;;;10.31;nan
34328;BME280;20588;48.840;10.064;2022-12-26T02:25:15;96474.94;;;10.49;nan
34328;BME280;20588;48.840;10.064;2022-12-26T02:27:58;96464.19;;;10.58;nan
34328;BME280;20588;48.840;10.064;2022-12-26T02:30:52;96473.56;;;10.71;nan
34328;BME280;20588;48.840;10.064;2022-12-26T02:34:27;96478.44;;;10.79;nan
34328;BME280;20588;48.840;10.064;2022-12-26T02:48:04;96448.59;;;10.96;nan
34328;BME280;20588;48.840;10.064;2022-12-26T02:50:52;96440.50;;;10.92;nan
34328;BME280;20588;48.840;10.064;2022-12-26T02:56:55;96451.31;;;11.01;nan
34328;BME280;20588;48.840;10.064;2022-12-26T03:05:49;96469.13;;;11.21;nan
34328;BME280;20588;48.840;10.064;2022-12-26T03:08:59;96490.28;;;11.23;nan
34328;BME280;20588;48.840;10.064;2022-12-26T03:11:49;96483.50;;;11.28;nan
34328;BME280;20588;48.840;10.064;2022-12-26T03:14:43;96477.72;;;11.33;nan
34328;BME280;20588;48.840;10.064;2022-12-26T03:17:17;96480.28;;;11.33;nan
34328;BME280;20588;48.840;10.064;2022-12-26T03:19:50;96476.47;;;11.35;nan
34328;BME280;20588;48.840;10.064;2022-12-26T03:22:46;96488.56;;;11.35;nan
34328;BME280;20588;48.840;10.064;2022-12-26T03:25:31;96485.00;;;11.36;nan
34328;BME280;20588;48.840;10.064;2022-12-26T03:28:21;96479.13;;;11.47;nan
34328;BME280;20588;48.840;10.064;2022-12-26T03:30:48;96478.19;;;11.41;nan
34328;BME280;20588;48.840;10.064;2022-12-26T03:33:19;96475.78;;;11.46;nan
34328;BME280;20588;48.840;10.064;2022-12-26T03:36:09;96485.72;;;11.43;nan
34328;BME280;20588;48.840;10.064;2022-12-26T03:39:06;96468.59;;;11.48;nan
34328;BME280;20588;48.840;10.064;2022-12-26T03:41:48;96465.59;;;11.51;nan
34328;BME280;20588;48.840;10.064;2022-12-26T03:45:09;96476.63;;;11.58;nan
34328;BME280;20588;48.840;10.064;2022-12-26T03:48:00;96469.63;;;11.65;nan
34328;BME280;20588;48.840;10.064;2022-12-26T03:50:53;96468.81;;;11.65;nan
34328;BME280;20588;48.840;10.064;2022-12-26T03:53:49;96473.53;;;11.68;nan
34328;BME280;20588;48.840;10.064;2022-12-26T03:56:59;96460.22;;;11.71;nan
34328;BME280;20588;48.840;10.064;2022-12-26T04:00:11;96458.72;;;11.81;nan
34328;BME280;20588;48.840;10.064;2022-12-26T04:03:06;96467.19;;;11.70;nan
34328;BME280;20588;48.840;10.064;2022-12-26T04:05:53;96464.28;;;11.60;nan
34328;BME280;20588;48.840;10.064;2022-12-26T04:08:50;96463.94;;;11.57;nan
34328;BME280;20588;48.840;10.064;2022-12-26T04:11:39;96468.53;;;11.55;nan
34328;BME280;20588;48.840;10.064;2022-12-26T04:14:35;96470.75;;;11.51;nan
34328;BME280;20588;48.840;10.064;2022-12-26T04:23:15;96471.06;;;11.43;nan
34328;BME280;20588;48.840;10.064;2022-12-26T04:26:14;96473.03;;;11.41;nan
34328;BME280;20588;48.840;10.064;2022-12-26T04:29:01;96481.13;;;11.45;nan
34328;BME280;20588;48.840;10.064;2022-12-26T04:32:17;96483.91;;;11.61;nan
34328;BME280;20588;48.840;10.064;2022-12-26T04:35:29;96487.44;;;11.49;nan
34328;BME280;20588;48.840;10.064;2022-12-26T04:38:21;96482.06;;;11.50;nan
34328;BME280;20588;48.840;10.064;2022-12-26T04:41:08;96486.84;;;11.47;nan
34328;BME280;20588;48.840;10.064;2022-12-26T04:43:56;96489.41;;;11.47;nan
34328;BME280;20588;48.840;10.064;2022-12-26T04:46:44;96487.34;;;11.55;nan
34328;BME280;20588;48.840;10.064;2022-12-26T04:49:12;96489.00;;;11.50;nan
34328;BME280;20588;48.840;10.064;2022-12-26T04:51:59;96500.31;;;11.49;nan
34328;BME280;20588;48.840;10.064;2022-12-26T04:54:25;96496.16;;;11.48;nan
34328;BME280;20588;48.840;10.064;2022-12-26T04:56:52;96495.31;;;11.54;nan
34328;BME280;20588;48.840;10.064;2022-12-26T04:59:19;96490.00;;;11.49;nan
34328;BME280;20588;48.840;10.064;2022-12-26T05:01:45;96487.06;;;11.45;nan
34328;BME280;20588;48.840;10.064;2022-12-26T05:04:30;96498.38;;;11.44;nan
34328;BME280;20588;48.840;10.064;2022-12-26T05:07:22;96494.78;;;11.45;nan
34328;BME280;20588;48.840;10.064;2022-12-26T05:10:13;96489.84;;;11.44;nan
34328;BME280;20588;48.840;10.064;2022-12-26T05:12:40;96489.34;;;11.53;nan
34328;BME280;20588;48.840;10.064;2022-12-26T05:15:06;96493.81;;;11.46;nan
34328;BME280;20588;48.840;10.064;2022-12-26T05:17:32;96498.38;;;11.44;nan
34328;BME280;20588;48.840;10.064;2022-12-26T05:20:17;96501.38;;;11.41;nan
34328;BME280;20588;48.840;10.064;2022-12-26T05:23:02;96497.94;;;11.47;nan
34328;BME280;20588;48.840;10.064;2022-12-26T05:25:47;96496.94;;;11.48;nan
34328;BME280;20588;48.840;10.064;2022-12-26T05:28:32;96507.47;;;11.47;nan
34328;BME280;20588;48.840;10.064;2022-12-26T05:31:11;96487.91;;;11.57;nan
34328;BME280;20588;48.840;10.064;2022-12-26T05:33:38;96488.56;;;11.53;nan
34328;BME280;20588;48.840;10.064;2022-12-26T05:36:26;96495.53;;;11.52;nan
34328;BME280;20588;48.840;10.064;2022-12-26T05:38:53;96507.25;;;11.48;nan
34328;BME280;20588;48.840;10.064;2022-12-26T05:41:21;96491.44;;;11.45;nan
34328;BME280;20588;48.840;10.064;2022-12-26T05:43:47;96483.50;;;11.46;nan
34328;BME280;20588;48.840;10.064;2022-12-26T05:46:13;96486.34;;;11.56;nan
34328;BME280;20588;48.840;10.064;2022-12-26T05:48:39;96480.06;;;11.52;nan
34328;BME280;20588;48.840;10.064;2022-12-26T05:51:06;96488.00;;;11.51;nan
34328;BME280;20588;48.840;10.064;2022-12-26T05:53:32;96482.41;;;11.54;nan
34328;BME280;20588;48.840;10.064;2022-12-26T05:56:03;96472.75;;;11.49;nan
34328;BME280;20588;48.840;10.064;2022-12-26T05:58:30;96476.09;;;11.50;nan
34328;BME280;20588;48.840;10.064;2022-12-26T06:03:30;96477.13;;;11.49;nan
34328;BME280;20588;48.840;10.064;2022-12-26T06:05:56;96491.78;;;11.48;nan
34328;BME280;20588;48.840;10.064;2022-12-26T06:08:22;96485.06;;;11.47;nan
34328;BME280;20588;48.840;10.064;2022-12-26T06:10:48;96462.31;;;11.44;nan
34328;BME280;20588;48.840;10.064;2022-12-26T06:13:14;96466.66;;;11.44;nan
34328;BME280;20588;48.840;10.064;2022-12-26T06:15:40;96457.16;;;11.44;nan
34328;BME280;20588;48.840;10.064;2022-12-26T06:18:06;96454.50;;;11.51;nan
34328;BME280;20588;48.840;10.064;2022-12-26T06:20:32;96457.31;;;11.49;nan
34328;BME280;20588;48.840;10.064;2022-12-26T06:22:58;96467.81;;;11.48;nan
34328;BME280;20588;48.840;10.064;2022-12-26T06:25:24;96471.59;;;11.45;nan
34328;BME280;20588;48.840;10.064;2022-12-26T06:27:51;96478.56;;;11.45;nan
34328;BME280;20588;48.840;10.064;2022-12-26T06:30:17;96475.19;;;11.44;nan
34328;BME280;20588;48.840;10.064;2022-12-26T06:32:43;96485.50;;;11.44;nan
34328;BME280;20588;48.840;10.064;2022-12-26T06:35:09;96482.50;;;11.47;nan
34328;BME280;20588;48.840;10.064;2022-12-26T06:37:35;96480.28;;;11.51;nan
34328;BME280;20588;48.840;10.064;2022-12-26T06:40:01;96487.78;;;11.52;nan
34328;BME280;20588;48.840;10.064;2022-12-26T06:42:28;96489.13;;;11.55;nan
34328;BME280;20588;48.840;10.064;2022-12-26T06:44:54;96474.47;;;11.55;nan
34328;BME280;20588;48.840;10.064;2022-12-26T06:47:20;96482.53;;;11.59;nan
34328;BME280;20588;48.840;10.064;2022-12-26T06:49:46;96478.19;;;11.59;nan
34328;BME280;20588;48.840;10.064;2022-12-26T06:52:12;96478.19;;;11.59;nan
34328;BME280;20588;48.840;10.064;2022-12-26T06:54:39;96483.91;;;11.61;nan
34328;BME280;20588;48.840;10.064;2022-12-26T06:57:05;96484.28;;;11.65;nan
34328;BME280;20588;48.840;10.064;2022-12-26T06:59:32;96486.63;;;11.66;nan
34328;BME280;20588;48.840;10.064;2022-12-26T07:01:58;96493.72;;;11.71;nan
34328;BME280;20588;48.840;10.064;2022-12-26T07:04:24;96491.50;;;11.74;nan
34328;BME280;20588;48.840;10.064;2022-12-26T07:06:50;96501.22;;;11.72;nan
34328;BME280;20588;48.840;10.064;2022-12-26T07:09:17;96509.91;;;11.78;nan
34328;BME280;20588;48.840;10.064;2022-12-26T07:11:48;96500.72;;;11.82;nan
34328;BME280;20588;48.840;10.064;2022-12-26T07:14:15;96501.53;;;11.82;nan
34328;BME280;20588;48.840;10.064;2022-12-26T07:16:43;96484.81;;;11.85;nan
34328;BME280;20588;48.840;10.064;2022-12-26T07:19:10;96499.97;;;11.81;nan
34328;BME280;20588;48.840;10.064;2022-12-26T07:21:37;96506.00;;;11.75;nan
34328;BME280;20588;48.840;10.064;2022-12-26T07:24:03;96498.53;;;11.67;nan
34328;BME280;20588;48.840;10.064;2022-12-26T07:26:29;96492.63;;;11.60;nan
34328;BME280;20588;48.840;10.064;2022-12-26T07:28:57;96489.72;;;11.57;nan
34328;BME280;20588;48.840;10.064;2022-12-26T07:31:24;96492.22;;;11.63;nan
34328;BME280;20588;48.840;10.064;2022-12-26T07:33:54;96485.91;;;11.59;nan
34328;BME280;20588;48.840;10.064;2022-12-26T07:36:20;96495.84;;;11.56;nan
34328;BME280;20588;48.840;10.064;2022-12-26T07:38:47;96505.69;;;11.47;nan
34328;BME280;20588;48.840;10.064;2022-12-26T07:41:13;96507.47;;;11.47;nan
34328;BME280;20588;48.840;10.064;2022-12-26T07:43:59;96508.91;;;11.43;nan
34328;BME280;20588;48.840;10.064;2022-12-26T07:46:25;96513.41;;;11.47;nan
34328;BME280;20588;48.840;10.064;2022-12-26T07:48:51;96510.91;;;11.41;nan
34328;BME280;20588;48.840;10.064;2022-12-26T07:51:17;96509.69;;;11.43;nan
34328;BME280;20588;48.840;10.064;2022-12-26T07:53:43;96509.91;;;11.42;nan
34328;BME280;20588;48.840;10.064;2022-12-26T07:56:09;96517.00;;;11.46;nan
34328;BME280;20588;48.840;10.064;2022-12-26T07:58:35;96518.28;;;11.37;nan
34328;BME280;20588;48.840;10.064;2022-12-26T08:01:02;96525.88;;;11.32;nan
34328;BME280;20588;48.840;10.064;2022-12-26T08:03:28;96525.88;;;11.32;nan
34328;BME280;20588;48.840;10.064;2022-12-26T08:05:55;96520.22;;;11.24;nan
34328;BME280;20588;48.840;10.064;2022-12-26T08:08:21;96503.91;;;11.30;nan
34328;BME280;20588;48.840;10.064;2022-12-26T08:10:47;96504.81;;;11.17;nan
34328;BME280;20588;48.840;10.064;2022-12-26T08:13:13;96502.59;;;11.21;nan
34328;BME280;20588;48.840;10.064;2022-12-26T08:15:39;96511.63;;;11.12;nan
34328;BME280;20588;48.840;10.064;2022-12-26T08:18:06;96503.53;;;11.08;nan
34328;BME280;20588;48.840;10.064;2022-12-26T08:20:32;96512.47;;;11.06;nan
34328;BME280;20588;48.840;10.064;2022-12-26T08:22:58;96515.03;;;11.06;nan
34328;BME280;20588;48.840;10.064;2022-12-26T08:25:24;96510.53;;;11.01;nan
34328;BME280;20588;48.840;10.064;2022-12-26T08:27:51;96520.47;;;10.98;nan
34328;BME280;20588;48.840;10.064;2022-12-26T08:30:17;96519.66;;;10.97;nan
34328;BME280;20588;48.840;10.064;2022-12-26T08:32:43;96513.66;;;11.03;nan
34328;BME280;20588;48.840;10.064;2022-12-26T08:35:09;96521.44;;;10.96;nan
34328;BME280;20588;48.840;10.064;2022-12-26T08:37:35;96526.25;;;10.93;nan
34328;BME280;20588;48.840;10.064;2022-12-26T08:40:01;96528.22;;;10.91;nan
34328;BME280;20588;48.840;10.064;2022-12-26T08:42:27;96531.81;;;10.90;nan
34328;BME280;20588;48.840;10.064;2022-12-26T08:44:53;96539.75;;;10.88;nan
34328;BME280;20588;48.840;10.064;2022-12-26T08:47:19;96538.53;;;10.91;nan
34328;BME280;20588;48.840;10.064;2022-12-26T08:49:45;96541.59;;;10.99;nan
34328;BME280;20588;48.840;10.064;2022-12-26T08:52:11;96541.97;;;11.03;nan
34328;BME280;20588;48.840;10.064;2022-12-26T08:54:37;96552.91;;;10.98;nan
34328;BME280;20588;48.840;10.064;2022-12-26T08:57:03;96546.97;;;10.98;nan
34328;BME280;20588;48.840;10.064;2022-12-26T08:59:29;96552.81;;;10.87;nan
34328;BME280;20588;48.840;10.064;2022-12-26T09:01:55;96554.03;;;10.84;nan
34328;BME280;20588;48.840;10.064;2022-12-26T09:04:21;96544.94;;;10.82;nan
34328;BME280;20588;48.840;10.064;2022-12-26T09:06:47;96544.47;;;10.67;nan
34328;BME280;20588;48.840;10.064;2022-12-26T09:09:13;96547.69;;;10.56;nan
34328;BME280;20588;48.840;10.064;2022-12-26T09:11:40;96552.72;;;10.51;nan
34328;BME280;20588;48.840;10.064;2022-12-26T09:14:07;96560.22;;;10.52;nan
34328;BME280;20588;48.840;10.064;2022-12-26T09:16:43;96566.13;;;10.53;nan
34328;BME280;20588;48.840;10.064;2022-12-26T09:19:12;96559.22;;;10.53;nan
34328;BME280;20588;48.840;10.064;2022-12-26T09:21:39;96560.56;;;10.56;nan
34328;BME280;20588;48.840;10.064;2022-12-26T09:24:09;96565.50;;;10.57;nan
34328;BME280;20588;48.840;10.064;2022-12-26T09:26:36;96565.91;;;10.54;nan
34328;BME280;20588;48.840;10.064;2022-12-26T09:29:02;96569.47;;;10.60;nan
34328;BME280;20588;48.840;10.064;2022-12-26T09:31:31;96576.00;;;10.56;nan
34328;BME280;20588;48.840;10.064;2022-12-26T09:34:00;96584.31;;;10.58;nan
34328;BME280;20588;48.840;10.064;2022-12-26T09:36:29;96582.66;;;10.70;nan
34328;BME280;20588;48.840;10.064;2022-12-26T09:38:56;96576.38;;;10.59;nan
34328;BME280;20588;48.840;10.064;2022-12-26T09:41:53;96580.53;;;10.60;nan
34328;BME280;20588;48.840;10.064;2022-12-26T09:44:47;96582.91;;;10.62;nan
34328;BME280;20588;48.840;10.064;2022-12-26T09:47:35;96578.53;;;10.62;nan
34328;BME280;20588;48.840;10.064;2022-12-26T09:57:52;96590.69;;;10.55;nan
34328;BME280;20588;48.840;10.064;2022-12-26T10:00:27;96590.91;;;10.47;nan
34328;BME280;20588;48.840;10.064;2022-12-26T10:02:54;96592.47;;;10.48;nan
34328;BME280;20588;48.840;10.064;2022-12-26T10:05:24;96589.34;;;10.46;nan
34328;BME280;20588;48.840;10.064;2022-12-26T10:10:59;96601.31;;;10.59;nan
34328;BME280;20588;48.840;10.064;2022-12-26T10:13:41;96605.63;;;10.65;nan
34328;BME280;20588;48.840;10.064;2022-12-26T10:23:46;96619.41;;;10.77;nan
34328;BME280;20588;48.840;10.064;2022-12-26T10:28:57;96638.66;;;10.74;nan
34328;BME280;20588;48.840;10.064;2022-12-26T10:31:41;96641.22;;;10.74;nan
34328;BME280;20588;48.840;10.064;2022-12-26T10:34:29;96655.88;;;10.74;nan
34328;BME280;20588;48.840;10.064;2022-12-26T10:39:58;96663.38;;;10.75;nan
34328;BME280;20588;48.840;10.064;2022-12-26T10:42:29;96680.84;;;10.73;nan
34328;BME280;20588;48.840;10.064;2022-12-26T10:44:58;96686.75;;;10.74;nan
34328;BME280;20588;48.840;10.064;2022-12-26T10:47:27;96683.44;;;10.67;nan
34328;BME280;20588;48.840;10.064;2022-12-26T10:49:55;96678.31;;;10.60;nan
34328;BME280;20588;48.840;10.064;2022-12-26T10:52:31;96689.41;;;10.54;nan
34328;BME280;20588;48.840;10.064;2022-12-26T10:54:59;96691.06;;;10.42;nan
34328;BME280;20588;48.840;10.064;2022-12-26T10:57:28;96690.72;;;10.32;nan
34328;BME280;20588;48.840;10.064;2022-12-26T10:59:56;96693.28;;;10.32;nan
34328;BME280;20588;48.840;10.064;2022-12-26T11:02:30;96696.47;;;10.28;nan
34328;BME280;20588;48.840;10.064;2022-12-26T11:05:22;96703.59;;;10.26;nan
34328;BME280;20588;48.840;10.064;2022-12-26T11:07:53;96695.66;;;10.27;nan
34328;BME280;20588;48.840;10.064;2022-12-26T11:10:27;96701.41;;;10.23;nan
34328;BME280;20588;48.840;10.064;2022-12-26T11:12:55;96688.97;;;10.20;nan
34328;BME280;20588;48.840;10.064;2022-12-26T11:15:34;96710.13;;;10.22;nan
34328;BME280;20588;48.840;10.064;2022-12-26T11:18:22;96713.47;;;10.22;nan
34328;BME280;20588;48.840;10.064;2022-12-26T11:20:53;96710.53;;;10.19;nan
34328;BME280;20588;48.840;10.064;2022-12-26T11:23:30;96711.72;;;10.23;nan
34328;BME280;20588;48.840;10.064;2022-12-26T11:25:59;96711.69;;;10.29;nan
34328;BME280;20588;48.840;10.064;2022-12-26T11:28:36;96703.97;;;10.29;nan
34328;BME280;20588;48.840;10.064;2022-12-26T11:31:06;96712.09;;;10.26;nan
34328;BME280;20588;48.840;10.064;2022-12-26T11:33:38;96710.50;;;10.25;nan
34328;BME280;20588;48.840;10.064;2022-12-26T11:36:10;96700.41;;;10.24;nan
34328;BME280;20588;48.840;10.064;2022-12-26T11:38:57;96692.91;;;10.29;nan
34328;BME280;20588;48.840;10.064;2022-12-26T11:46:41;96683.78;;;10.33;nan
34328;BME280;20588;48.840;10.064;2022-12-26T11:49:24;96677.25;;;10.37;nan
34328;BME280;20588;48.840;10.064;2022-12-26T11:51:52;96667.13;;;10.42;nan
34328;BME280;20588;48.840;10.064;2022-12-26T11:54:32;96663.75;;;10.48;nan
34328;BME280;20588;48.840;10.064;2022-12-26T11:57:11;96651.84;;;10.47;nan
34328;BME280;20588;48.840;10.064;2022-12-26T11:59:38;96640.06;;;10.70;nan
34328;BME280;20588;48.840;10.064;2022-12-26T12:02:21;96627.50;;;10.80;nan
34328;BME280;20588;48.840;10.064;2022-12-26T12:04:49;96626.50;;;10.81;nan
34328;BME280;20588;48.840;10.064;2022-12-26T12:07:26;96632.88;;;10.79;nan
34328;BME280;20588;48.840;10.064;2022-12-26T12:15:33;96679.63;;;10.76;nan
34328;BME280;20588;48.840;10.064;2022-12-26T12:18:21;96679.22;;;10.79;nan
34328;BME280;20588;48.840;10.064;2022-12-26T12:26:38;96646.97;;;10.76;nan
34328;BME280;20588;48.840;10.064;2022-12-26T12:29:23;96659.63;;;10.78;nan
34328;BME280;20588;48.840;10.064;2022-12-26T12:37:58;96646.41;;;10.68;nan
34328;BME280;20588;48.840;10.064;2022-12-26T12:43:31;96645.00;;;10.72;nan
34328;BME280;20588;48.840;10.064;2022-12-26T12:48:57;96647.72;;;10.77;nan
34328;BME280;20588;48.840;10.064;2022-12-26T12:51:44;96658.19;;;10.82;nan
34328;BME280;20588;48.840;10.064;2022-12-26T12:54:37;96644.50;;;10.88;nan
34328;BME280;20588;48.840;10.064;2022-12-26T13:00:19;96648.19;;;10.98;nan
34328;BME280;20588;48.840;10.064;2022-12-26T13:05:43;96654.59;;;10.89;nan
34328;BME280;20588;48.840;10.064;2022-12-26T13:10:51;96661.72;;;10.87;nan
34328;BME280;20588;48.840;10.064;2022-12-26T13:13:23;96653.47;;;10.79;nan
34328;BME280;20588;48.840;10.064;2022-12-26T13:15:54;96642.44;;;10.72;nan
34328;BME280;20588;48.840;10.064;2022-12-26T13:18:26;96643.06;;;10.67;nan
34328;BME280;20588;48.840;10.064;2022-12-26T13:20:58;96643.25;;;10.66;nan
34328;BME280;20588;48.840;10.064;2022-12-26T13:23:34;96647.59;;;10.65;nan
34328;BME280;20588;48.840;10.064;2022-12-26T13:26:22;96645.63;;;10.67;nan
34328;BME280;20588;48.840;10.064;2022-12-26T13:29:15;96642.63;;;10.70;nan
34328;BME280;20588;48.840;10.064;2022-12-26T13:31:43;96650.56;;;10.69;nan
34328;BME280;20588;48.840;10.064;2022-12-26T13:34:15;96660.69;;;10.64;nan
34328;BME280;20588;48.840;10.064;2022-12-26T13:36:47;96667.41;;;10.65;nan
34328;BME280;20588;48.840;10.064;2022-12-26T13:44:51;96651.59;;;10.61;nan
34328;BME280;20588;48.840;10.064;2022-12-26T13:47:34;96649.22;;;10.60;nan
34328;BME280;20588;48.840;10.064;2022-12-26T13:55:56;96653.16;;;10.62;nan
34328;BME280;20588;48.840;10.064;2022-12-26T14:09:54;96631.13;;;10.42;nan
34328;BME280;20588;48.840;10.064;2022-12-26T14:12:44;96645.97;;;10.40;nan
34328;BME280;20588;48.840;10.064;2022-12-26T14:18:24;96627.00;;;10.34;nan
34328;BME280;20588;48.840;10.064;2022-12-26T14:32:39;96632.75;;;10.30;nan
34328;BME280;20588;48.840;10.064;2022-12-26T14:38:03;96635.91;;;10.25;nan
34328;BME280;20588;48.840;10.064;2022-12-26T14:40:33;96640.50;;;10.23;nan
34328;BME280;20588;48.840;10.064;2022-12-26T14:45:49;96622.72;;;10.22;nan
34328;BME280;20588;48.840;10.064;2022-12-26T14:53:28;96625.28;;;10.22;nan
34328;BME280;20588;48.840;10.064;2022-12-26T15:00:56;96615.75;;;10.22;nan
34328;BME280;20588;48.840;10.064;2022-12-26T15:08:55;96611.81;;;10.20;nan
34328;BME280;20588;48.840;10.064;2022-12-26T15:25:33;96622.91;;;10.20;nan
34328;BME280;20588;48.840;10.064;2022-12-26T15:33:26;96626.66;;;10.18;nan
34328;BME280;20588;48.840;10.064;2022-12-26T15:36:05;96615.41;;;10.19;nan
34328;BME280;20588;48.840;10.064;2022-12-26T15:46:55;96617.19;;;10.12;nan
34328;BME280;20588;48.840;10.064;2022-12-26T16:00:15;96618.19;;;10.17;nan
34328;BME280;20588;48.840;10.064;2022-12-26T16:03:05;96623.31;;;10.17;nan
34328;BME280;20588;48.840;10.064;2022-12-26T16:05:46;96620.94;;;10.16;nan
34328;BME280;20588;48.840;10.064;2022-12-26T16:13:49;96625.91;;;10.11;nan
34328;BME280;20588;48.840;10.064;2022-12-26T16:16:31;96619.75;;;10.12;nan
34328;BME280;20588;48.840;10.064;2022-12-26T16:18:57;96611.47;;;10.10;nan
34328;BME280;20588;48.840;10.064;2022-12-26T16:21:38;96621.19;;;10.08;nan
34328;BME280;20588;48.840;10.064;2022-12-26T16:24:23;96627.69;;;10.10;nan
34328;BME280;20588;48.840;10.064;2022-12-26T16:26:51;96632.63;;;10.12;nan
34328;BME280;20588;48.840;10.064;2022-12-26T16:29:19;96623.72;;;10.14;nan
34328;BME280;20588;48.840;10.064;2022-12-26T16:31:45;96614.22;;;10.15;nan
34328;BME280;20588;48.840;10.064;2022-12-26T16:34:16;96607.28;;;10.15;nan
34328;BME280;20588;48.840;10.064;2022-12-26T16:36:43;96598.97;;;10.20;nan
34328;BME280;20588;48.840;10.064;2022-12-26T16:39:10;96604.91;;;10.20;nan
34328;BME280;20588;48.840;10.064;2022-12-26T16:44:40;96606.88;;;10.25;nan
34328;BME280;20588;48.840;10.064;2022-12-26T16:47:12;96602.50;;;10.25;nan
34328;BME280;20588;48.840;10.064;2022-12-26T16:49:39;96610.81;;;10.27;nan
34328;BME280;20588;48.840;10.064;2022-12-26T16:52:36;96610.03;;;10.27;nan
34328;BME280;20588;48.840;10.064;2022-12-26T16:57:48;96620.69;;;10.30;nan
34328;BME280;20588;48.840;10.064;2022-12-26T17:00:19;96628.59;;;10.29;nan
34328;BME280;20588;48.840;10.064;2022-12-26T17:02:48;96627.22;;;10.26;nan
34328;BME280;20588;48.840;10.064;2022-12-26T17:05:20;96630.59;;;10.27;nan
34328;BME280;20588;48.840;10.064;2022-12-26T17:07:49;96620.88;;;10.29;nan
34328;BME280;20588;48.840;10.064;2022-12-26T17:10:26;96620.69;;;10.30;nan